Time;durP1;ratioP1;P1;durP2;ratioP2;P2;SDS_P1;SDS_P2;PMS_P1;PMS_P2;Temp;Humidity;BMP_temperature;BMP_pressure;BME280_temperature;BME280_humidity;BME280_pressure;Samples;Min_cycle;Max_cycle;Signal;HPM_P1;HPM_P2
2024/04/04 00:02:01;;;;;;;12.80;11.50;;;9.80;1.00;;;;;;5095001;28;20175;-76
2024/04/04 00:04:30;;;;;;;13.80;11.50;;;9.80;1.00;;;;;;5094863;28;20242;-73
2024/04/04 00:06:56;;;;;;;14.00;12.30;;;9.80;1.00;;;;;;5094672;28;20180;-74
2024/04/04 00:09:22;;;;;;;11.93;10.47;;;9.90;1.00;;;;;;5093730;28;20759;-76
2024/04/04 00:11:51;;;;;;;13.73;11.40;;;9.90;1.00;;;;;;5076602;28;20377;-74
2024/04/04 00:14:17;;;;;;;12.90;11.50;;;9.90;1.00;;;;;;5076450;28;20518;-75
2024/04/04 00:16:42;;;;;;;17.53;10.80;;;9.90;1.00;;;;;;5094594;28;20412;-79
2024/04/04 00:19:09;;;;;;;13.80;12.33;;;9.90;1.00;;;;;;5091926;28;20748;-73
2024/04/04 00:21:36;;;;;;;13.03;11.20;;;9.90;1.00;;;;;;5094587;28;20180;-74
2024/04/04 00:24:03;;;;;;;13.57;11.13;;;9.90;1.00;;;;;;5059919;28;20749;-76
2024/04/04 00:26:29;;;;;;;13.80;12.30;;;10.00;1.00;;;;;;5094516;28;20865;-75
2024/04/04 00:28:56;;;;;;;16.77;12.10;;;10.00;1.00;;;;;;5092705;28;20434;-75
2024/04/04 00:31:22;;;;;;;13.23;11.80;;;9.90;1.00;;;;;;5059702;28;20204;-76
2024/04/04 00:33:48;;;;;;;14.00;11.67;;;9.90;1.00;;;;;;5059591;28;20396;-75
2024/04/04 00:36:13;;;;;;;13.33;11.27;;;10.00;1.00;;;;;;5093793;28;20388;-75
2024/04/04 00:38:41;;;;;;;13.90;12.27;;;10.00;1.00;;;;;;5075448;28;20178;-74
2024/04/04 00:41:07;;;;;;;14.70;13.13;;;10.00;1.00;;;;;;5076128;28;21044;-74
2024/04/04 00:43:34;;;;;;;16.60;13.93;;;10.00;1.00;;;;;;5076013;28;20488;-73
2024/04/04 00:46:02;;;;;;;19.20;14.13;;;10.10;1.00;;;;;;5094260;28;20166;-74
2024/04/04 00:48:28;;;;;;;14.67;13.13;;;10.10;1.00;;;;;;5074774;28;20626;-74
2024/04/04 00:50:54;;;;;;;15.97;13.50;;;10.00;1.00;;;;;;5093476;28;20513;-74
2024/04/04 00:53:23;;;;;;;15.80;13.63;;;10.10;1.00;;;;;;5093747;28;20171;-74
2024/04/04 00:55:49;;;;;;;15.93;13.97;;;10.10;1.00;;;;;;5093755;28;20849;-74
2024/04/04 00:58:17;;;;;;;18.17;13.27;;;10.10;1.00;;;;;;5074431;28;20412;-74
2024/04/04 01:00:43;;;;;;;14.87;13.30;;;10.20;1.00;;;;;;5093569;28;20422;-75
2024/04/04 01:03:10;;;;;;;18.17;14.80;;;10.20;1.00;;;;;;5075611;28;20400;-75
2024/04/04 01:05:35;;;;;;;19.60;15.13;;;10.20;1.00;;;;;;5093719;28;20180;-74
2024/04/04 01:08:02;;;;;;;15.47;13.90;;;10.20;1.00;;;;;;5092233;28;20422;-74
2024/04/04 01:10:28;;;;;;;21.17;14.50;;;10.30;1.00;;;;;;5075499;28;20185;-74
2024/04/04 01:12:55;;;;;;;17.00;14.37;;;10.20;1.00;;;;;;5093554;28;20413;-73
2024/04/04 01:15:20;;;;;;;20.90;15.73;;;10.30;1.00;;;;;;5075412;28;20162;-74
2024/04/04 01:17:46;;;;;;;19.43;15.30;;;10.30;1.00;;;;;;5093357;28;20378;-78
2024/04/04 01:20:12;;;;;;;16.87;13.70;;;10.30;1.00;;;;;;5092762;28;20225;-74
2024/04/04 01:22:37;;;;;;;20.07;14.70;;;10.30;1.00;;;;;;5093564;28;20227;-73
2024/04/04 01:25:03;;;;;;;18.80;16.13;;;10.30;1.00;;;;;;5093009;28;20686;-75
2024/04/04 01:27:29;;;;;;;17.67;15.80;;;10.30;1.00;;;;;;5092971;28;20735;-74
2024/04/04 01:29:54;;;;;;;22.50;17.00;;;10.30;1.00;;;;;;5092499;28;20472;-74
2024/04/04 01:32:20;;;;;;;24.83;17.90;;;10.30;1.00;;;;;;5093327;28;20199;-74
2024/04/04 01:34:46;;;;;;;26.43;15.80;;;10.30;1.00;;;;;;5093275;28;20162;-76
2024/04/04 01:37:11;;;;;;;20.20;15.50;;;10.30;1.00;;;;;;5075200;28;20176;-75
2024/04/04 01:39:37;;;;;;;25.80;16.40;;;10.30;1.00;;;;;;5074006;28;20244;-74
2024/04/04 01:42:03;;;;;;;22.63;16.80;;;10.30;1.00;;;;;;5093297;28;20167;-75
2024/04/04 01:44:29;;;;;;;21.50;15.50;;;10.30;1.00;;;;;;5092591;28;20171;-75
2024/04/04 01:46:54;;;;;;;22.03;17.57;;;10.40;1.00;;;;;;5093072;28;21029;-74
2024/04/04 01:49:20;;;;;;;21.60;16.97;;;10.40;1.00;;;;;;5092116;28;20754;-74
2024/04/04 01:51:46;;;;;;;22.10;16.10;;;10.40;1.00;;;;;;5074910;28;20212;-74
2024/04/04 01:54:14;;;;;;;20.47;16.40;;;10.40;1.00;;;;;;5093012;28;20194;-74
2024/04/04 01:56:40;;;;;;;21.53;15.60;;;10.40;1.00;;;;;;5075113;28;20646;-74
2024/04/04 01:59:05;;;;;;;22.97;16.97;;;10.40;1.00;;;;;;5092132;28;20382;-74
2024/04/04 02:01:31;;;;;;;19.33;15.50;;;10.40;1.00;;;;;;5074781;28;20391;-74
2024/04/04 02:03:57;;;;;;;21.73;15.90;;;10.40;1.00;;;;;;5092418;28;20175;-74
2024/04/04 02:06:24;;;;;;;18.83;15.93;;;10.40;1.00;;;;;;5092875;28;20381;-73
2024/04/04 02:08:49;;;;;;;17.53;15.43;;;10.40;1.00;;;;;;5091769;28;20428;-74
2024/04/04 02:11:15;;;;;;;17.33;15.43;;;10.30;1.00;;;;;;5077803;28;20397;-74
2024/04/04 02:13:41;;;;;;;25.37;16.73;;;10.30;1.00;;;;;;5096895;28;20658;-75
2024/04/04 02:16:08;;;;;;;23.97;16.80;;;10.30;1.00;;;;;;5097026;28;20414;-75
2024/04/04 02:18:34;;;;;;;20.80;16.50;;;10.30;1.00;;;;;;5096021;28;20167;-74
2024/04/04 02:21:00;;;;;;;25.13;15.60;;;10.30;1.00;;;;;;5096443;28;20410;-75
2024/04/04 02:23:27;;;;;;;22.40;15.40;;;10.30;1.00;;;;;;5096070;28;20491;-75
2024/04/04 02:25:55;;;;;;;20.00;16.40;;;10.30;1.00;;;;;;5078563;28;20172;-74
2024/04/04 02:28:21;;;;;;;22.13;14.20;;;10.30;1.00;;;;;;5095771;28;20431;-75
2024/04/04 02:30:46;;;;;;;27.13;15.27;;;10.30;1.00;;;;;;5096645;28;20422;-75
2024/04/04 02:33:12;;;;;;;20.20;14.83;;;10.30;1.00;;;;;;5096726;28;20257;-74
2024/04/04 02:35:39;;;;;;;19.23;14.93;;;10.30;1.00;;;;;;5096530;28;20174;-75
2024/04/04 02:38:06;;;;;;;22.93;15.40;;;10.30;1.00;;;;;;5095008;28;20638;-75
2024/04/04 02:40:32;;;;;;;17.43;14.20;;;10.30;1.00;;;;;;5096494;28;20427;-74
2024/04/04 02:42:57;;;;;;;17.87;14.43;;;10.40;1.00;;;;;;5096429;28;20408;-74
2024/04/04 02:45:23;;;;;;;14.90;12.33;;;10.40;1.00;;;;;;5096341;28;20177;-75
2024/04/04 02:47:49;;;;;;;18.07;13.90;;;10.30;1.00;;;;;;5095556;28;20208;-84
2024/04/04 02:50:15;;;;;;;17.93;13.67;;;10.40;1.00;;;;;;5096153;28;20185;-75
2024/04/04 02:52:41;;;;;;;15.60;12.23;;;10.40;1.00;;;;;;5078153;28;20164;-75
2024/04/04 02:55:06;;;;;;;14.90;12.23;;;10.40;1.00;;;;;;5095360;28;20409;-74
2024/04/04 02:57:32;;;;;;;20.87;13.17;;;10.30;1.00;;;;;;5096177;28;20183;-74
2024/04/04 02:59:58;;;;;;;23.03;13.60;;;10.30;1.00;;;;;;5095186;28;20187;-75
2024/04/04 03:02:25;;;;;;;18.53;12.47;;;10.30;1.00;;;;;;5095948;28;20594;-74
2024/04/04 03:04:50;;;;;;;21.83;14.03;;;10.30;1.00;;;;;;5096021;28;20401;-74
2024/04/04 03:07:16;;;;;;;16.80;12.90;;;10.20;1.00;;;;;;5096203;28;20415;-74
2024/04/04 03:09:42;;;;;;;17.30;13.60;;;10.20;1.00;;;;;;5094901;28;20191;-74
2024/04/04 03:12:07;;;;;;;17.57;13.20;;;10.20;1.00;;;;;;5095598;28;20245;-75
2024/04/04 03:14:33;;;;;;;17.70;13.00;;;10.20;1.00;;;;;;5095369;28;20526;-75
2024/04/04 03:16:59;;;;;;;23.40;13.80;;;10.20;1.00;;;;;;5095811;28;20201;-75
2024/04/04 03:19:24;;;;;;;15.10;13.10;;;10.20;1.00;;;;;;5094809;28;20167;-77
2024/04/04 03:21:50;;;;;;;17.20;12.77;;;10.30;1.00;;;;;;5095113;28;20296;-75
2024/04/04 03:24:16;;;;;;;16.73;13.30;;;10.30;1.00;;;;;;5095565;28;20160;-74
2024/04/04 03:26:41;;;;;;;19.27;13.07;;;10.30;1.00;;;;;;5095701;28;20172;-76
2024/04/04 03:29:07;;;;;;;17.80;13.03;;;10.30;1.00;;;;;;5094656;28;20199;-74
2024/04/04 03:31:33;;;;;;;19.33;13.20;;;10.20;1.00;;;;;;5095448;28;20573;-74
2024/04/04 03:33:58;;;;;;;16.00;12.33;;;10.20;1.00;;;;;;5094970;28;20179;-74
2024/04/04 03:36:24;;;;;;;19.40;12.83;;;10.20;1.00;;;;;;5095351;28;20200;-74
2024/04/04 03:38:50;;;;;;;17.37;14.07;;;10.20;1.00;;;;;;5094528;28;20529;-75
2024/04/04 03:41:16;;;;;;;17.17;12.23;;;10.20;1.00;;;;;;5095351;28;20189;-74
2024/04/04 03:43:42;;;;;;;18.03;14.10;;;10.20;1.00;;;;;;5095337;28;20401;-74
2024/04/04 03:46:08;;;;;;;21.33;13.43;;;10.20;1.00;;;;;;5095232;28;20172;-75
2024/04/04 03:48:34;;;;;;;18.50;13.03;;;10.20;1.00;;;;;;5093830;28;20433;-76
2024/04/04 03:51:00;;;;;;;18.97;12.60;;;10.20;1.00;;;;;;5094664;28;20191;-75
2024/04/04 03:53:26;;;;;;;18.23;12.13;;;10.20;1.00;;;;;;5095063;28;20473;-75
2024/04/04 03:55:52;;;;;;;18.03;12.50;;;10.20;1.00;;;;;;5095168;28;20773;-74
2024/04/04 03:58:18;;;;;;;20.47;12.20;;;10.20;1.00;;;;;;5093816;28;20179;-76
2024/04/04 04:00:45;;;;;;;20.90;12.83;;;10.20;1.00;;;;;;5094837;28;20192;-76
2024/04/04 04:03:10;;;;;;;20.07;12.43;;;10.20;1.00;;;;;;5095041;28;20539;-75
2024/04/04 04:05:36;;;;;;;22.53;11.57;;;10.20;1.00;;;;;;5094812;28;20445;-74
2024/04/04 04:08:02;;;;;;;17.63;11.57;;;10.20;1.00;;;;;;5093318;28;20222;-76
2024/04/04 04:10:30;;;;;;;23.57;11.50;;;10.10;1.00;;;;;;5094722;28;20283;-75
2024/04/04 04:12:55;;;;;;;19.50;13.20;;;10.10;1.00;;;;;;5094769;28;20161;-75
2024/04/04 04:15:22;;;;;;;19.20;11.90;;;10.10;1.00;;;;;;5094918;28;20406;-75
2024/04/04 04:17:47;;;;;;;14.27;11.00;;;10.10;1.00;;;;;;5094284;28;20400;-82
2024/04/04 04:22:57;;;;;;;17.53;11.20;;;10.10;1.00;;;;;;5094156;28;20181;-75
2024/04/04 04:25:23;;;;;;;15.00;10.80;;;10.10;1.00;;;;;;5075930;28;20787;-76
2024/04/04 04:27:49;;;;;;;15.90;10.93;;;10.10;1.00;;;;;;5093736;28;20200;-82
2024/04/04 04:30:14;;;;;;;22.63;11.67;;;10.10;1.00;;;;;;5076021;28;20969;-76
2024/04/04 04:32:40;;;;;;;16.83;10.60;;;10.00;1.00;;;;;;5093832;28;20194;-76
2024/04/04 04:35:06;;;;;;;25.23;11.77;;;10.00;1.00;;;;;;5075183;28;20633;-75
2024/04/04 04:37:33;;;;;;;15.33;11.07;;;10.10;1.00;;;;;;5094253;28;20654;-75
2024/04/04 04:39:59;;;;;;;17.73;10.60;;;10.00;1.00;;;;;;5075329;28;20424;-75
2024/04/04 04:42:25;;;;;;;23.33;11.00;;;10.00;1.00;;;;;;5093918;28;20385;-75
2024/04/04 04:44:50;;;;;;;17.50;10.80;;;10.00;1.00;;;;;;5093246;28;20193;-76
2024/04/04 04:47:16;;;;;;;16.83;10.17;;;10.00;1.00;;;;;;5094108;28;20225;-75
2024/04/04 04:49:42;;;;;;;15.80;9.73;;;10.00;1.00;;;;;;5093055;28;20502;-75
2024/04/04 04:52:08;;;;;;;20.10;9.27;;;10.00;1.00;;;;;;5093981;28;20168;-76
2024/04/04 04:54:33;;;;;;;18.03;9.83;;;10.00;1.00;;;;;;5094052;28;20176;-75
2024/04/04 04:57:01;;;;;;;12.27;8.23;;;10.00;1.00;;;;;;5093507;28;20558;-75
2024/04/04 04:59:27;;;;;;;18.43;10.70;;;10.00;1.00;;;;;;5074681;28;20222;-75
2024/04/04 05:01:52;;;;;;;17.10;10.00;;;10.00;1.00;;;;;;5093602;28;20400;-76
2024/04/04 05:04:20;;;;;;;15.87;9.00;;;10.00;1.00;;;;;;5093386;28;20402;-75
2024/04/04 05:06:46;;;;;;;13.37;8.77;;;9.90;1.00;;;;;;5093734;28;20190;-75
2024/04/04 05:09:13;;;;;;;21.53;8.73;;;9.90;1.00;;;;;;5092620;28;20443;-75
2024/04/04 05:11:39;;;;;;;17.50;9.43;;;9.90;1.00;;;;;;5075441;28;20480;-76
2024/04/04 05:14:04;;;;;;;16.00;9.03;;;9.90;1.00;;;;;;5075320;28;20427;-76
2024/04/04 05:16:30;;;;;;;14.53;8.90;;;9.90;1.00;;;;;;5075547;28;20619;-75
2024/04/04 05:18:56;;;;;;;16.07;8.97;;;9.90;1.00;;;;;;5092115;28;20174;-76
2024/04/04 05:21:22;;;;;;;12.20;7.60;;;9.90;1.00;;;;;;5093306;28;20195;-76
2024/04/04 05:23:47;;;;;;;12.63;8.53;;;9.90;1.00;;;;;;5093516;28;20217;-75
2024/04/04 05:26:13;;;;;;;18.57;7.70;;;9.90;1.00;;;;;;5093435;28;20171;-75
2024/04/04 05:28:40;;;;;;;13.47;7.80;;;9.90;1.00;;;;;;5092509;28;20245;-75
2024/04/04 05:31:06;;;;;;;15.80;8.43;;;9.90;1.00;;;;;;5075034;28;20193;-76
2024/04/04 05:33:32;;;;;;;16.90;7.80;;;9.90;1.00;;;;;;5075069;28;20927;-75
2024/04/04 05:35:58;;;;;;;18.93;7.50;;;10.00;1.00;;;;;;5075118;28;20408;-75
2024/04/04 05:38:24;;;;;;;11.57;8.70;;;10.00;1.00;;;;;;5092188;28;20376;-75
2024/04/04 05:40:50;;;;;;;13.53;8.13;;;10.00;1.00;;;;;;5093064;28;20216;-75
2024/04/04 05:43:16;;;;;;;14.37;7.03;;;10.00;1.00;;;;;;5093101;28;20163;-76
2024/04/04 05:45:43;;;;;;;10.30;6.67;;;9.90;1.00;;;;;;5074747;28;20179;-75
2024/04/04 05:48:08;;;;;;;11.27;7.63;;;9.90;1.00;;;;;;5073948;28;20427;-76
2024/04/04 05:50:34;;;;;;;8.63;7.17;;;9.90;1.00;;;;;;5093227;28;20433;-76
2024/04/04 05:53:00;;;;;;;8.23;6.20;;;9.80;1.00;;;;;;5074284;28;20224;-75
2024/04/04 05:55:26;;;;;;;14.67;7.40;;;9.80;1.00;;;;;;5092938;28;20378;-73
2024/04/04 05:57:52;;;;;;;16.77;7.00;;;9.80;1.00;;;;;;5074125;28;20399;-73
2024/04/04 06:00:18;;;;;;;18.07;8.00;;;9.80;1.00;;;;;;5092860;28;20802;-73
2024/04/04 06:02:43;;;;;;;18.13;8.13;;;9.90;1.00;;;;;;5093006;28;20170;-77
2024/04/04 06:05:09;;;;;;;8.03;6.80;;;9.90;1.00;;;;;;5093082;28;20251;-73
2024/04/04 06:07:35;;;;;;;11.00;7.30;;;9.90;1.00;;;;;;5074745;28;20237;-74
2024/04/04 06:10:01;;;;;;;8.83;7.30;;;9.90;1.00;;;;;;5092131;28;20236;-74
2024/04/04 06:12:26;;;;;;;9.60;6.90;;;9.80;1.00;;;;;;5092266;28;20244;-75
2024/04/04 06:14:52;;;;;;;11.60;6.80;;;9.80;1.00;;;;;;5092879;28;20642;-72
2024/04/04 06:17:18;;;;;;;8.60;7.33;;;9.80;1.00;;;;;;5092981;28;20222;-75
2024/04/04 06:19:44;;;;;;;9.17;7.70;;;9.80;1.00;;;;;;5091762;28;20190;-73
2024/04/04 06:22:09;;;;;;;13.60;8.63;;;9.80;1.00;;;;;;5092827;28;20528;-76
2024/04/04 06:24:35;;;;;;;12.00;7.57;;;9.90;1.00;;;;;;5092941;28;20253;-73
2024/04/04 06:27:01;;;;;;;12.23;8.23;;;10.00;1.00;;;;;;5092731;28;20169;-73
2024/04/04 06:29:26;;;;;;;8.33;7.30;;;10.00;1.00;;;;;;5091811;28;20186;-73
2024/04/04 06:31:52;;;;;;;8.63;7.33;;;10.10;1.00;;;;;;5091989;28;20212;-75
2024/04/04 06:34:19;;;;;;;17.13;8.53;;;10.20;1.00;;;;;;5074578;28;20653;-73
2024/04/04 06:36:44;;;;;;;22.30;8.50;;;10.20;1.00;;;;;;5092717;28;20169;-77
2024/04/04 06:39:12;;;;;;;8.00;6.50;;;10.20;1.00;;;;;;5073660;28;20389;-73
2024/04/04 06:41:38;;;;;;;13.13;8.00;;;10.30;1.00;;;;;;5092578;28;20177;-75
2024/04/04 06:44:09;;;;;;;10.27;8.30;;;10.30;1.00;;;;;;5092468;28;20413;-77
2024/04/04 06:46:35;;;;;;;13.43;7.63;;;10.40;1.00;;;;;;5074802;28;20381;-74
2024/04/04 06:49:04;;;;;;;10.33;7.43;;;10.40;1.00;;;;;;5091457;28;20433;-75
2024/04/04 06:51:32;;;;;;;16.97;8.77;;;10.30;1.00;;;;;;5073710;28;20193;-75
2024/04/04 06:53:59;;;;;;;16.50;7.77;;;10.40;1.00;;;;;;5092488;28;20744;-77
2024/04/04 06:56:25;;;;;;;15.43;9.90;;;10.40;1.00;;;;;;5092581;28;20385;-76
2024/04/04 06:58:51;;;;;;;10.70;7.87;;;10.40;1.00;;;;;;5077291;28;20395;-76
2024/04/04 07:01:17;;;;;;;13.03;8.50;;;10.50;1.00;;;;;;5078052;28;20201;-74
2024/04/04 07:03:43;;;;;;;12.97;8.60;;;10.50;1.00;;;;;;5078091;28;20645;-74
2024/04/04 07:06:10;;;;;;;19.37;8.53;;;10.40;1.00;;;;;;5061262;28;20411;-76
2024/04/04 07:08:38;;;;;;;12.97;8.70;;;10.50;99.90;;;;;;5094774;28;20432;-75
2024/04/04 07:11:05;;;;;;;12.10;8.00;;;10.50;99.90;;;;;;5095894;28;20428;-74
2024/04/04 07:13:36;;;;;;;12.43;7.90;;;10.50;99.90;;;;;;5061885;28;20778;-76
2024/04/04 07:16:04;;;;;;;11.33;8.30;;;10.50;99.90;;;;;;5078710;28;20388;-75
2024/04/04 07:18:33;;;;;;;15.80;9.90;;;10.50;99.90;;;;;;5077200;28;20477;-75
2024/04/04 07:21:00;;;;;;;19.87;8.80;;;10.60;99.90;;;;;;5078184;28;20414;-76
2024/04/04 07:23:28;;;;;;;15.77;7.37;;;10.70;99.90;;;;;;5095431;28;20496;-76
2024/04/04 07:25:56;;;;;;;12.30;8.47;;;10.70;99.90;;;;;;5077191;28;20468;-75
2024/04/04 07:28:23;;;;;;;15.00;8.37;;;10.90;99.90;;;;;;5094851;28;20507;-75
2024/04/04 07:30:50;;;;;;;14.47;7.70;;;10.90;99.90;;;;;;5095439;28;20922;-76
2024/04/04 07:33:16;;;;;;;19.10;7.10;;;10.90;99.90;;;;;;5060919;28;20425;-76
2024/04/04 07:35:43;;;;;;;8.03;7.20;;;10.90;99.90;;;;;;5095352;28;20409;-75
2024/04/04 07:38:12;;;;;;;9.37;6.83;;;10.90;99.90;;;;;;5076702;28;20413;-76
2024/04/04 07:40:41;;;;;;;15.07;8.23;;;10.90;99.90;;;;;;5077398;28;20438;-75
2024/04/04 07:43:11;;;;;;;9.93;7.13;;;10.90;99.90;;;;;;5077637;28;20433;-75
2024/04/04 07:45:40;;;;;;;13.33;6.80;;;11.00;99.90;;;;;;5077231;28;20413;-75
2024/04/04 07:48:10;;;;;;;12.13;9.33;;;11.10;99.90;;;;;;5059878;28;20482;-76
2024/04/04 07:50:40;;;;;;;13.50;6.80;;;11.20;99.90;;;;;;5077409;28;20456;-75
2024/04/04 07:53:08;;;;;;;13.13;7.17;;;11.10;99.90;;;;;;5095069;28;20482;-76
2024/04/04 07:55:35;;;;;;;10.30;7.17;;;11.10;99.90;;;;;;5095026;28;20394;-75
2024/04/04 07:58:02;;;;;;;12.90;7.80;;;11.20;99.90;;;;;;5094657;28;20390;-78
2024/04/04 08:00:29;;;;;;;9.83;7.60;;;11.10;99.90;;;;;;5093668;28;20442;-76
2024/04/04 08:02:56;;;;;;;8.63;6.97;;;11.20;99.90;;;;;;5076249;28;20787;-75
2024/04/04 08:05:21;;;;;;;19.33;7.13;;;11.20;99.90;;;;;;5095063;28;20384;-79
2024/04/04 08:07:48;;;;;;;10.17;7.17;;;11.30;99.90;;;;;;5093047;28;20438;-84
2024/04/04 08:10:15;;;;;;;7.47;6.30;;;11.30;99.90;;;;;;5076331;28;20264;-75
2024/04/04 08:12:43;;;;;;;8.83;6.90;;;11.40;99.90;;;;;;5060423;28;20900;-76
2024/04/04 08:15:12;;;;;;;7.43;6.73;;;11.60;99.90;;;;;;5059994;28;20982;-75
2024/04/04 08:17:40;;;;;;;8.90;5.87;;;11.70;99.90;;;;;;5076942;28;20835;-77
2024/04/04 08:20:15;;;;;;;8.20;6.00;;;11.90;93.90;;;;;;5075872;28;20907;-76
2024/04/04 08:22:42;;;;;;;13.50;5.67;;;12.10;76.10;;;;;;5094558;28;20408;-79
2024/04/04 08:25:08;;;;;;;12.97;6.47;;;12.10;5.90;;;;;;5059850;28;20431;-75
2024/04/04 08:27:38;;;;;;;10.37;5.17;;;12.10;1.00;;;;;;5076089;28;20433;-75
2024/04/04 08:30:06;;;;;;;13.70;5.30;;;12.10;1.00;;;;;;5093725;28;20193;-76
2024/04/04 08:32:32;;;;;;;6.50;4.53;;;12.10;1.00;;;;;;5076597;28;20913;-76
2024/04/04 08:35:00;;;;;;;9.50;4.87;;;12.10;1.00;;;;;;5075906;28;20507;-75
2024/04/04 08:37:28;;;;;;;8.77;4.47;;;12.10;1.00;;;;;;5059893;28;20661;-75
2024/04/04 08:39:55;;;;;;;9.13;6.17;;;12.00;1.00;;;;;;5075526;28;20464;-75
2024/04/04 08:42:28;;;;;;;11.10;4.90;;;12.10;1.00;;;;;;5076308;28;20455;-76
2024/04/04 08:45:00;;;;;;;6.87;4.50;;;12.20;1.00;;;;;;5094003;28;20415;-76
2024/04/04 08:47:28;;;;;;;8.87;4.97;;;12.30;1.00;;;;;;5076457;28;20799;-75
2024/04/04 08:49:54;;;;;;;10.20;6.40;;;12.50;1.00;;;;;;5075368;28;20489;-75
2024/04/04 08:52:21;;;;;;;5.17;4.03;;;12.50;1.00;;;;;;5075811;28;20437;-75
2024/04/04 08:54:48;;;;;;;6.73;4.00;;;12.60;1.00;;;;;;5075197;28;20518;-76
2024/04/04 08:57:17;;;;;;;9.23;4.80;;;12.70;1.00;;;;;;5075500;28;20431;-75
2024/04/04 08:59:57;;;;;;;5.53;3.63;;;12.60;1.00;;;;;;5058670;28;20429;-76
2024/04/04 09:02:27;;;;;;;7.03;3.67;;;12.70;1.00;;;;;;5075624;28;20420;-75
2024/04/04 09:05:07;;;;;;;5.90;4.20;;;12.60;1.00;;;;;;5075508;28;20428;-76
2024/04/04 09:07:35;;;;;;;11.17;5.10;;;12.70;1.00;;;;;;5059528;28;20435;-78
2024/04/04 09:10:03;;;;;;;11.93;4.57;;;12.70;1.00;;;;;;5074609;28;20429;-79
2024/04/04 09:12:29;;;;;;;15.10;3.97;;;12.80;1.00;;;;;;5074773;28;20925;-75
2024/04/04 09:15:00;;;;;;;11.43;4.03;;;12.80;99.90;;;;;;5093180;28;20418;-75
2024/04/04 09:17:27;;;;;;;6.50;3.87;;;12.80;99.90;;;;;;5075210;28;20438;-75
2024/04/04 09:19:57;;;;;;;6.57;4.10;;;12.70;99.90;;;;;;5092390;28;20434;-76
2024/04/04 09:22:25;;;;;;;5.50;3.30;;;12.70;99.90;;;;;;5075709;28;20399;-75
2024/04/04 09:24:59;;;;;;;8.37;3.77;;;12.60;99.90;;;;;;5093920;28;20464;-76
2024/04/04 09:27:27;;;;;;;4.60;2.87;;;12.70;99.90;;;;;;5075248;28;20455;-76
2024/04/04 09:29:53;;;;;;;6.80;3.50;;;12.70;99.90;;;;;;5074874;28;20500;-79
2024/04/04 09:32:20;;;;;;;6.67;2.97;;;12.70;99.90;;;;;;5093031;28;20408;-76
2024/04/04 09:34:47;;;;;;;3.33;3.10;;;12.50;99.90;;;;;;5075469;28;20411;-75
2024/04/04 09:37:15;;;;;;;4.37;3.23;;;12.50;99.90;;;;;;5075003;28;20421;-76
2024/04/04 09:39:43;;;;;;;4.23;3.23;;;12.50;99.90;;;;;;5092525;28;20445;-75
2024/04/04 09:42:11;;;;;;;6.07;5.33;;;12.50;99.90;;;;;;5075477;28;20854;-75
2024/04/04 09:44:38;;;;;;;6.63;3.30;;;12.50;99.90;;;;;;5075451;28;20495;-76
2024/04/04 09:47:06;;;;;;;5.87;2.60;;;12.40;99.90;;;;;;5058167;28;20500;-76
2024/04/04 09:49:32;;;;;;;5.97;3.27;;;12.30;99.90;;;;;;5073786;28;20223;-75
2024/04/04 09:52:01;;;;;;;6.43;3.37;;;12.20;99.90;;;;;;5074987;28;20521;-75
2024/04/04 09:54:30;;;;;;;6.43;3.20;;;12.20;99.90;;;;;;5092695;28;20422;-75
2024/04/04 09:56:58;;;;;;;3.43;3.07;;;12.10;99.90;;;;;;5059055;28;20422;-75
2024/04/04 09:59:28;;;;;;;12.50;3.03;;;12.00;99.90;;;;;;5092880;28;20399;-75
2024/04/04 10:02:05;;;;;;;5.23;3.37;;;12.00;99.90;;;;;;5093291;28;20424;-75
2024/04/04 10:04:38;;;;;;;12.33;4.13;;;12.00;99.90;;;;;;5076018;28;20384;-75
2024/04/04 10:07:05;;;;;;;6.43;3.87;;;12.10;99.90;;;;;;5060129;28;20405;-75
2024/04/04 10:09:41;;;;;;;9.23;6.10;;;12.00;99.90;;;;;;5057850;28;20475;-75
2024/04/04 10:12:13;;;;;;;4.80;2.80;;;11.90;99.90;;;;;;5075536;28;20452;-75
2024/04/04 10:15:07;;;;;;;8.73;3.90;;;11.80;99.90;;;;;;5075386;28;20507;-75
2024/04/04 10:17:43;;;;;;;3.97;3.10;;;11.80;1.00;;;;;;5093590;28;20390;-75
2024/04/04 10:20:11;;;;;;;4.07;3.10;;;11.80;1.00;;;;;;5074737;28;20460;-75
2024/04/04 10:22:38;;;;;;;10.13;2.93;;;11.90;1.00;;;;;;5058137;28;20904;-76
2024/04/04 10:25:05;;;;;;;4.43;3.23;;;11.90;1.00;;;;;;5075344;28;20489;-75
2024/04/04 10:27:31;;;;;;;6.20;3.20;;;12.00;1.00;;;;;;5041778;28;20502;-75
2024/04/04 10:29:58;;;;;;;6.47;3.27;;;12.00;1.00;;;;;;5058006;28;20443;-76
2024/04/04 10:32:28;;;;;;;11.23;3.10;;;12.00;1.00;;;;;;5094720;28;20471;-75
2024/04/04 10:35:05;;;;;;;6.43;3.63;;;12.00;1.00;;;;;;5097130;28;20396;-75
2024/04/04 10:37:33;;;;;;;5.80;3.70;;;11.90;1.00;;;;;;5092746;28;20854;-75
2024/04/04 10:40:01;;;;;;;7.00;4.03;;;11.90;1.00;;;;;;5078147;28;20933;-76
2024/04/04 10:42:28;;;;;;;3.33;3.07;;;12.10;1.00;;;;;;5096863;28;20407;-75
2024/04/04 10:44:54;;;;;;;7.50;3.90;;;12.10;1.00;;;;;;5096223;28;20403;-75
2024/04/04 10:47:21;;;;;;;5.27;3.53;;;12.10;1.00;;;;;;5061567;28;20183;-76
2024/04/04 10:49:47;;;;;;;6.27;3.73;;;12.20;1.00;;;;;;5060723;28;20460;-76
2024/04/04 10:52:15;;;;;;;5.77;3.50;;;12.20;1.00;;;;;;5096457;28;20435;-75
2024/04/04 10:54:41;;;;;;;8.50;3.23;;;12.30;1.00;;;;;;5078482;28;20160;-76
2024/04/04 10:57:07;;;;;;;5.27;3.97;;;12.20;1.00;;;;;;5077904;28;20418;-78
2024/04/04 10:59:33;;;;;;;7.20;3.00;;;12.10;1.00;;;;;;5095693;28;20778;-76
2024/04/04 11:02:03;;;;;;;4.10;3.03;;;12.10;1.00;;;;;;5096146;28;20399;-76
2024/04/04 11:04:32;;;;;;;8.63;3.27;;;12.00;1.00;;;;;;5096239;28;20435;-75
2024/04/04 11:06:58;;;;;;;3.27;2.97;;;11.90;1.00;;;;;;5096114;28;20863;-74
2024/04/04 11:09:26;;;;;;;7.53;2.57;;;11.80;1.00;;;;;;5095015;28;20453;-75
2024/04/04 11:11:54;;;;;;;5.80;2.87;;;11.60;1.00;;;;;;5095879;28;20408;-76
2024/04/04 11:14:24;;;;;;;4.80;2.80;;;11.50;1.00;;;;;;5095961;28;20936;-75
2024/04/04 11:16:54;;;;;;;4.33;3.60;;;11.50;1.00;;;;;;5095256;28;20382;-75
2024/04/04 11:19:24;;;;;;;3.70;2.83;;;11.40;1.00;;;;;;5095092;28;20405;-75
2024/04/04 11:21:50;;;;;;;4.40;2.80;;;11.40;1.00;;;;;;5095880;28;20730;-75
2024/04/04 11:24:21;;;;;;;6.70;3.33;;;11.40;1.00;;;;;;5095847;28;20411;-75
2024/04/04 11:26:48;;;;;;;8.43;3.20;;;11.30;1.00;;;;;;5078460;28;20417;-74
2024/04/04 11:29:15;;;;;;;3.17;2.70;;;11.40;1.00;;;;;;5094735;28;20818;-76
2024/04/04 11:31:43;;;;;;;5.53;2.83;;;11.30;1.00;;;;;;5078090;28;20171;-75
2024/04/04 11:34:09;;;;;;;4.30;3.07;;;11.30;1.00;;;;;;5095488;28;20542;-75
2024/04/04 11:36:34;;;;;;;2.57;2.47;;;11.30;1.00;;;;;;5060120;28;20510;-78
2024/04/04 11:39:00;;;;;;;2.30;2.13;;;11.30;7.90;;;;;;5094780;28;20167;-73
2024/04/04 11:41:27;;;;;;;2.30;2.20;;;11.20;12.00;;;;;;5060771;28;20194;-74
2024/04/04 11:43:54;;;;;;;4.60;3.60;;;11.20;20.80;;;;;;5060289;28;20181;-77
2024/04/04 11:46:23;;;;;;;2.50;2.30;;;11.10;33.00;;;;;;5077118;28;20440;-75
2024/04/04 11:48:50;;;;;;;2.30;2.20;;;11.10;33.10;;;;;;5093597;28;20471;-75
2024/04/04 11:51:16;;;;;;;2.57;2.23;;;11.10;45.60;;;;;;5077002;28;20428;-76
2024/04/04 11:53:41;;;;;;;4.23;2.33;;;11.00;54.20;;;;;;5094632;28;20453;-75
2024/04/04 11:56:07;;;;;;;2.40;2.20;;;11.00;72.70;;;;;;5094940;28;20165;-75
2024/04/04 11:58:35;;;;;;;2.53;1.97;;;11.00;85.10;;;;;;5076104;28;20176;-76
2024/04/04 12:01:03;;;;;;;2.77;2.40;;;11.00;96.30;;;;;;5095138;28;20423;-74
2024/04/04 12:03:28;;;;;;;3.57;2.30;;;11.00;99.90;;;;;;5076681;28;20777;-74
2024/04/04 12:05:54;;;;;;;2.50;2.10;;;11.00;99.90;;;;;;5094179;28;20538;-76
2024/04/04 12:08:20;;;;;;;2.33;2.13;;;11.00;99.90;;;;;;5075536;28;20560;-75
2024/04/04 12:10:47;;;;;;;5.63;2.87;;;11.00;99.90;;;;;;5094099;28;20228;-74
2024/04/04 12:13:14;;;;;;;3.00;2.70;;;11.00;99.90;;;;;;5095097;28;20625;-75
2024/04/04 12:15:49;;;;;;;3.00;2.33;;;10.90;99.90;;;;;;5095152;28;20412;-73
2024/04/04 12:21:01;;;;;;;6.10;2.17;;;10.90;99.90;;;;;;5093941;28;20818;-75
2024/04/04 12:23:27;;;;;;;3.07;2.77;;;10.80;99.90;;;;;;5094937;28;20400;-75
2024/04/04 12:25:52;;;;;;;4.30;2.67;;;10.80;99.90;;;;;;5094904;28;20190;-78
2024/04/04 12:28:19;;;;;;;2.73;2.33;;;10.90;99.90;;;;;;5075922;28;20577;-80
2024/04/04 12:30:45;;;;;;;5.00;2.30;;;10.90;99.90;;;;;;5075857;28;20193;-73
2024/04/04 12:33:11;;;;;;;2.47;2.27;;;10.90;99.90;;;;;;5094438;28;20410;-73
2024/04/04 12:35:38;;;;;;;4.37;2.53;;;10.90;99.90;;;;;;5094403;28;20412;-71
2024/04/04 12:38:04;;;;;;;3.33;3.03;;;10.90;99.90;;;;;;5058577;28;20465;-71
2024/04/04 12:40:29;;;;;;;3.40;3.10;;;10.90;99.90;;;;;;5094260;28;20825;-68
2024/04/04 12:42:55;;;;;;;5.93;3.40;;;11.00;99.90;;;;;;5094130;28;20756;-70
2024/04/04 12:45:21;;;;;;;3.33;3.13;;;11.00;99.90;;;;;;5094276;28;20515;-70
2024/04/04 12:47:46;;;;;;;4.37;2.27;;;11.10;99.90;;;;;;5093776;28;20190;-77
2024/04/04 12:50:12;;;;;;;2.53;2.30;;;11.10;99.90;;;;;;5092842;28;20216;-70